Airfield :
LOGIN :

Register | Disclaimer

   EN    FR    IT 

 










Legend :    VFR   Marginal VFR   IFR   Intensive IFR   Very Intensive IFR
Visi :
Ceiling :
>= 8 km
>= 3000ft
5 to 8 km
1000 to 3000 ft
1500m to 5 km
500 to 1000 ft
800 to 1500m
200 to 500 ft
< 800m
< 200 ft
Symbols :   Thunderstorms  Fog  Heavy snow  Heavy precipitations  Wind > 20 kt
SIGMETs :     Misc.  Thunderstorms  Icing  Turbulence  Mountain Waves  Volcanic Ashes






- Airport Elevation : 218 ft


EGYD - RAF Cranwell

CURRENT METAR :
  • 251050Z 19004KT 4000 RA SCT003 OVC006 09/09 Q1010 TEMPO 3500 RADZ RMK YLO2 TEMPO YLO2

EXPIRED METARs :
  • 250950Z 18005KT 5000 -RA BKN007 09/08 Q1009 TEMPO 3500 RADZ BKN004 RMK GRN TEMPO YLO2
  • 250850Z 17011KT 5000 BR BKN008 BKN060 09/08 Q1009 TEMPO 3500 RADZ BKN004 RMK GRN TEMPO YLO2

TAF TAF EGYD
Valid from the 25 at 09:00 until the 25 at 18:00 UTC


250726Z 2509/2518 31010KT 9999 BKN008
PROB40
TEMPO 2509/2513 3500 RADZ BKN004
BECMG 2512/2515 NSW FEW015



MET'MAP, your aeronautical weather chart ! - Copyright ORBIFLY December 2007 - Disclaimer

ORBIFLY MET'MAP TEAM :

Programming & Development : Alexandra Zaïnal
Concept & original design : Baudouin d'Aumeries
Assistance for programming : Marc-Olivier Méhu
Technical & hardware support : Manuel Goepfert

Contact : metmap@orbifly.com




SOURCES & CREDITS :

   NOAA